Latest Coastal Weather Observations for Cape Otway

IDV60701

Issued at 6:01 pm EST Wednesday 4 May 2016 (issued every 10 minutes, with the page automatically refreshed every 10 minutes)

About coastal observations | Map of coastal stations | Coastal observations for VIC | Marine services | Other Formats
Station Details ID: 090015 Name: CAPE OTWAY LIGHTHOUSE Lat: -38.86 Lon: 143.51 Height: 82.0 m
Data from the previous 72 hours. | See also: Recent months at Cape Otway
Date/Time
EST
Temp

°C
Wind Pressure Rain
since 9am
mm
Weather Cloud Vis
km
Sea
Height
m
Swell
Dir
 
Speed
knots
Gust
knots
hPa Trend Height
m
Period
s
Dir
04/06:00pm 13.7 NNW 10 17 1012.5 - 0.0 - - - - - - -
04/05:30pm 13.6 NW 10 17 1012.4 - 0.0 - - - - - - -
04/05:00pm 14.3 NW 9 16 1012.2 - 0.0 - - - - - - -
04/04:30pm 14.7 NW 11 18 1012.0 - 0.0 - - - - - - -
04/04:00pm 15.0 NW 14 22 1011.8 - 0.0 - - - - - - -
04/03:30pm 15.4 WNW 14 19 1011.8 - 0.0 - - - - - - -
04/03:00pm 15.2 NW 13 21 1012.0 - 0.0 - - - - - - -
04/02:30pm 14.6 NW 14 20 1012.3 - 0.0 - - - - - - -
04/02:00pm 14.6 WNW 14 23 1012.1 - 0.0 - - - - - - -
04/01:30pm 14.2 WNW 12 19 1012.3 - 0.0 - - - - - - -
04/01:00pm 14.1 NW 13 19 1012.5 - 0.0 - - - - - - -
04/12:30pm 14.8 NW 12 19 1012.7 - 0.0 - - - - - - -
04/12:00pm 14.3 NW 12 18 1013.2 - 0.0 - - - - - - -
04/11:30am 13.7 NNW 13 21 1013.3 - 0.0 - - - - - - -
04/11:00am 13.0 NNW 13 19 1013.6 - 0.0 - - - - - - -
04/10:30am 11.6 NW 10 15 1013.6 - 0.0 - - - - - - -
04/10:00am 11.2 NW 10 15 1013.5 - 0.0 - - - - - - -
04/09:30am 10.8 NNW 11 15 1013.3 - 0.0 - - - - - - -
04/09:00am 10.0 NNW 12 18 1013.2 - 19.0 - - - - - - -
04/08:30am 9.6 NNW 10 14 1012.9 - 18.8 - - - - - - -
04/08:00am 8.9 NNW 10 13 1012.6 - 18.8 - - - - - - -
04/07:30am 9.0 NNW 12 18 1012.0 - 18.6 - - - - - - -
04/07:00am 8.4 NNW 11 15 1011.3 - 18.6 - - - - - - -
04/06:30am 9.4 NW 9 14 1011.1 - 18.6 - - - - - - -
04/06:00am 10.2 NW 10 17 1011.0 - 18.4 - - - - - - -
04/05:30am 11.2 NW 13 25 1010.4 - 18.4 - - - - - - -
04/05:07am 12.1 W 15 26 1009.9 - 18.4 - - - - - - -
04/05:00am 11.2 WNW 12 20 1009.9 - 18.4 - - - - - - -
04/04:30am 12.5 W 16 24 1009.1 - 18.4 - - - - - - -
04/04:00am 11.8 W 19 27 1008.8 - 18.4 - - - - - - -
04/03:30am 12.0 W 22 29 1008.6 - 18.4 - - - - - - -
04/03:00am 10.6 W 26 36 1008.4 - 18.4 - - - - - - -
04/02:30am 12.3 W 22 32 1008.0 - 18.2 - - - - - - -
04/02:02am 12.0 W 25 35 1007.6 - 18.2 - - - - - - -
04/02:00am 12.0 W 26 34 1007.5 - 18.2 - - - - - - -
04/01:30am 11.7 W 23 37 1007.4 - 18.0 - - - - - - -
04/01:15am 12.6 W 21 31 1007.1 - 17.8 - - - - - - -
04/01:00am 12.7 W 23 31 1006.9 - 17.8 - - - - - - -
04/12:30am 11.9 W 26 41 1006.7 - 17.6 - - - - - - -
04/12:29am 12.1 W 25 41 1006.5 - 17.6 - - - - - - -
04/12:01am 12.2 W 20 30 1006.4 - 17.6 - - - - - - -
04/12:00am 12.1 W 21 30 1006.5 - 17.6 - - - - - - -
 
Date/Time
EST
Temp

°C
Wind Pressure Rain
since 9am
mm
Weather Cloud Vis
km
Sea
Height
m
Swell
Dir
 
Speed
knots
Gust
knots
hPa Trend Height
m
Period
s
Dir
03/11:31pm 12.5 W 23 33 1006.4 - 17.6 - - - - - - -
03/11:30pm 12.4 W 23 32 1006.4 - 17.6 - - - - - - -
03/11:09pm 12.4 W 25 35 1006.2 - 17.6 - - - - - - -
03/11:00pm 12.5 W 26 34 1006.1 - 17.6 - - - - - - -
03/10:30pm 11.6 W 26 37 1005.9 - 17.6 - - - - - - -
03/10:27pm 11.7 W 27 37 1005.7 - 17.4 - - - - - - -
03/10:26pm 11.0 W 28 37 1005.8 - 17.4 - - - - - - -
03/10:00pm 10.4 WNW 21 31 1005.7 - 17.2 - - - - - - -
03/09:50pm 10.5 WNW 26 39 1005.5 - 17.2 - - - - - - -
03/09:39pm 11.4 W 22 33 1005.1 - 16.4 - - - - - - -
03/09:34pm 11.5 WSW 21 32 1005.2 - 16.4 - - - - - - -
03/09:30pm 10.9 WNW 19 32 1005.1 - 16.4 - - - - - - -
03/09:00pm 10.8 WNW 22 32 1004.9 - 16.4 - - - - - - -
03/08:30pm 10.9 WNW 20 30 1004.3 - 15.6 - - - - - - -
03/08:08pm 11.8 WNW 19 30 1004.1 - 14.8 - - - - - - -
03/08:00pm 11.7 W 18 27 1004.1 - 14.8 - - - - - - -
03/07:47pm 11.3 WNW 20 33 1004.0 - 14.8 - - - - - - -
03/07:30pm 11.0 W 26 37 1003.8 - 14.8 - - - - - - -
03/07:20pm 12.6 W 26 44 1002.8 - 14.6 - - - - - - -
03/07:00pm 13.2 W 21 31 1002.7 - 14.6 - - - - - - -
03/06:30pm 13.3 W 24 35 1002.3 - 14.6 - - - - - - -
03/06:00pm 13.3 W 24 36 1001.5 - 14.6 - - - - - - -
03/05:30pm 13.0 W 28 38 1000.9 - 14.6 - - - - - - -
03/05:06pm 13.1 W 30 40 1000.5 - 14.6 - - - - - - -
03/05:00pm 13.2 W 30 39 1000.2 - 14.6 - - - - - - -
03/04:30pm 13.2 W 32 45 999.8 - 14.6 - - - - - - -
03/04:00pm 13.3 W 29 42 998.9 - 14.4 - - - - - - -
03/03:30pm 12.6 W 27 37 998.7 - 14.4 - - - - - - -
03/03:00pm 12.4 W 25 44 997.9 - 14.4 - - - - - - -
03/02:30pm 11.5 W 27 38 997.5 - 14.4 - - - - - - -
03/02:00pm 12.3 W 26 36 997.2 - 12.8 - - - - - - -
03/01:34pm 12.4 W 27 37 996.9 - 11.8 - - - - - - -
03/01:30pm 12.4 W 27 36 996.7 - 11.6 - - - - - - -
03/01:00pm 13.4 WNW 27 40 995.8 - 10.2 - - - - - - -
03/12:45pm 13.1 WNW 26 42 995.5 - 9.6 - - - - - - -
03/12:30pm 13.8 WNW 21 32 995.7 - 7.0 - - - - - - -
03/12:12pm 13.7 NW 19 30 995.9 - 6.4 - - - - - - -
03/12:00pm 13.5 NW 17 25 995.7 - 6.4 - - - - - - -
03/11:30am 13.5 WNW 20 30 996.2 - 6.0 - - - - - - -
03/11:00am 13.2 WNW 23 34 996.4 - 4.2 - - - - - - -
03/10:30am 14.3 NW 17 31 996.3 - 2.2 - - - - - - -
03/10:00am 14.4 NW 18 28 996.1 - 1.2 - - - - - - -
03/09:31am 14.6 NW 15 27 996.2 - 0.8 - - - - - - -
03/09:30am 14.7 NW 14 27 996.2 - 0.8 - - - - - - -
03/09:00am 15.5 NW 19 33 996.1 - 0.0 - - - - - - -
03/08:30am 15.3 NW 21 37 995.8 - 0.0 - - - - - - -
03/08:00am 16.8 NNW 21 36 995.4 - 0.0 - - - - - - -
03/07:30am 16.4 NNW 22 42 995.3 - 0.0 - - - - - - -
03/07:00am 14.8 NNW 21 33 995.7 - 0.0 - - - - - - -
03/06:30am 15.7 NNW 20 33 995.7 - 0.0 - - - - - - -
03/06:00am 16.0 NNW 23 37 995.8 - 0.0 - - - - - - -
03/05:30am 16.2 NNW 22 35 996.3 - 0.0 - - - - - - -
03/05:00am 15.7 NNW 21 39 996.3 - 0.0 - - - - - - -
03/04:30am 16.1 NNW 23 37 996.4 - 0.0 - - - - - - -
03/04:00am 15.4 NNW 21 36 997.0 - 0.0 - - - - - - -
03/03:30am 15.4 NNW 22 37 997.1 - 0.0 - - - - - - -
03/03:17am 15.6 NNW 21 43 997.4 - 0.0 - - - - - - -
03/03:00am 15.9 NNW 20 31 998.0 - 0.0 - - - - - - -
03/02:30am 15.9 NNW 23 40 998.4 - 0.0 - - - - - - -
03/02:00am 15.7 NNW 22 37 998.5 - 0.0 - - - - - - -
03/01:30am 15.9 NNW 23 44 998.9 - 0.0 - - - - - - -
03/01:00am 15.7 NNW 22 36 999.6 - 0.0 - - - - - - -
03/12:30am 15.7 NNW 20 36 999.8 - 0.0 - - - - - - -
03/12:00am 15.8 NNW 19 34 1000.3 - 0.0 - - - - - - -
 
Date/Time
EST
Temp

°C
Wind Pressure Rain
since 9am
mm
Weather Cloud Vis
km
Sea
Height
m
Swell
Dir
 
Speed
knots
Gust
knots
hPa Trend Height
m
Period
s
Dir
02/11:30pm 15.9 NNW 21 33 1001.1 - 0.0 - - - - - - -
02/11:00pm 16.0 NNW 24 37 1001.3 - 0.0 - - - - - - -
02/10:30pm 15.9 NNW 20 35 1001.9 - 0.0 - - - - - - -
02/10:00pm 15.9 NW 21 33 1002.5 - 0.0 - - - - - - -
02/09:30pm 16.0 NNW 19 31 1002.8 - 0.0 - - - - - - -
02/09:00pm 15.9 NNW 17 28 1002.8 - 0.0 - - - - - - -
02/08:39pm 16.3 NNW 18 28 1002.9 - 0.0 - - - - - - -
02/08:30pm 16.2 NNW 18 27 1003.1 - 0.0 - - - - - - -
02/08:00pm 15.9 NNW 18 30 1003.4 - 0.0 - - - - - - -
02/07:30pm 15.8 NNW 17 30 1003.6 - 0.0 - - - - - - -
02/07:00pm 15.8 NNW 16 28 1003.8 - 0.0 - - - - - - -
02/06:34pm 16.0 NNW 16 28 1004.0 - 0.0 - - - - - - -
02/06:30pm 16.1 NNW 16 25 1004.1 - 0.0 - - - - - - -
02/06:13pm 15.9 NNW 16 26 1004.2 - 0.0 - - - - - - -
02/06:00pm 15.9 NNW 15 24 1003.9 - 0.0 - - - - - - -
02/05:44pm 16.2 NNW 15 25 1004.2 - 0.0 - - - - - - -
02/05:30pm 16.3 NNW 15 24 1004.2 - 0.0 - - - - - - -
02/05:00pm 16.5 NW 15 24 1004.3 - 0.0 - - - - - - -
02/04:30pm 16.7 NNW 16 29 1004.4 - 0.0 - - - - - - -
02/04:04pm 17.1 NNW 15 25 1004.5 - 0.0 - - - - - - -
02/04:00pm 17.1 NNW 14 24 1004.5 - 0.0 - - - - - - -
02/03:30pm 17.4 NNW 19 34 1004.7 - 0.0 - - - - - - -
02/03:00pm 17.3 NW 16 29 1005.2 - 0.0 - - - - - - -
02/02:30pm 16.8 NW 16 29 1005.5 - 0.0 - - - - - - -
02/02:00pm 17.2 NW 17 32 1005.7 - 0.0 - - - - - - -
02/01:30pm 17.1 NW 18 28 1006.0 - 0.0 - - - - - - -
02/01:00pm 17.2 NW 18 30 1006.2 - 0.0 - - - - - - -
02/12:30pm 16.5 NW 15 29 1006.7 - 0.0 - - - - - - -
02/12:00pm 16.1 NW 18 32 1007.2 - 0.0 - - - - - - -
02/11:30am 15.5 NW 17 27 1007.7 - 0.0 - - - - - - -
02/11:00am 15.3 NW 17 29 1008.1 - 0.0 - - - - - - -
02/10:30am 14.4 NNW 16 29 1008.3 - 0.0 - - - - - - -
02/10:00am 13.7 NNW 19 31 1008.7 - 0.0 - - - - - - -
02/09:32am 13.1 NNW 17 29 1009.2 - 0.0 - - - - - - -
02/09:30am 13.1 NNW 17 26 1009.3 - 0.0 - - - - - - -
02/09:06am 12.7 NNW 17 27 1009.6 - 0.0 - - - - - - -
02/09:00am 12.5 NNW 18 24 1009.7 - 6.4 - - - - - - -
02/08:30am 12.0 NNW 18 29 1009.7 - 6.4 - - - - - - -
02/08:07am 11.5 NNW 18 31 1009.8 - 6.4 - - - - - - -
02/08:00am 11.3 NNW 18 26 1009.8 - 6.4 - - - - - - -
02/07:30am 10.9 NNW 18 28 1009.8 - 6.4 - - - - - - -
02/07:07am 10.8 NNW 19 30 1009.9 - 6.4 - - - - - - -
02/07:00am 10.7 NNW 19 28 1009.9 - 6.4 - - - - - - -
02/06:32am 10.8 NNW 17 27 1009.9 - 6.4 - - - - - - -
02/06:30am 10.9 NNW 18 27 1009.9 - 6.4 - - - - - - -
02/06:08am 10.6 NNW 16 28 1010.1 - 6.4 - - - - - - -
02/06:00am 10.6 NW 15 24 1010.2 - 6.4 - - - - - - -
02/05:30am 10.8 NW 16 27 1010.2 - 6.4 - - - - - - -
02/05:00am 10.9 NW 16 28 1010.2 - 6.4 - - - - - - -
02/04:46am 10.8 NNW 16 26 1010.4 - 6.4 - - - - - - -
02/04:30am 11.1 NW 18 27 1010.5 - 6.4 - - - - - - -
02/04:03am 11.2 NW 16 29 1010.6 - 6.4 - - - - - - -
02/04:00am 11.2 NW 16 24 1010.6 - 6.4 - - - - - - -
02/03:30am 10.8 NNW 16 27 1011.0 - 6.4 - - - - - - -
02/03:27am 10.8 NNW 16 27 1011.0 - 6.4 - - - - - - -
02/03:00am 11.0 NW 13 22 1011.4 - 6.4 - - - - - - -
02/02:30am 11.1 NW 16 26 1011.8 - 6.4 - - - - - - -
02/02:13am 11.1 NW 15 27 1011.8 - 6.4 - - - - - - -
02/02:00am 11.1 NW 12 20 1012.0 - 6.4 - - - - - - -
02/01:30am 11.1 NW 12 18 1012.3 - 6.4 - - - - - - -
02/01:00am 11.0 NW 14 22 1012.5 - 6.4 - - - - - - -
02/12:30am 10.7 NW 13 20 1012.8 - 6.4 - - - - - - -
02/12:00am 10.8 NW 16 24 1013.2 - 6.4 - - - - - - -
 
Date/Time
EST
Temp

°C
Wind Pressure Rain
since 9am
mm
Weather Cloud Vis
km
Sea
Height
m
Swell
Dir
 
Speed
knots
Gust
knots
hPa Trend Height
m
Period
s
Dir
01/11:30pm 10.6 NW 12 20 1013.0 - 6.4 - - - - - - -
01/11:00pm 10.7 NNW 12 17 1013.3 - 6.4 - - - - - - -
01/10:30pm 11.0 NNW 12 17 1013.3 - 6.4 - - - - - - -
01/10:00pm 12.8 WNW 17 26 1013.2 - 6.4 - - - - - - -
01/09:30pm 13.1 W 18 26 1012.9 - 6.4 - - - - - - -
01/09:07pm 13.0 W 19 29 1012.9 - 6.4 - - - - - - -
01/09:00pm 12.7 W 21 29 1012.8 - 6.4 - - - - - - -
01/08:43pm 13.0 W 18 28 1012.7 - 6.4 - - - - - - -
01/08:30pm 13.0 WNW 15 24 1012.6 - 6.4 - - - - - - -
01/08:29pm 13.0 WNW 15 27 1012.6 - 6.4 - - - - - - -
01/08:00pm 13.0 W 20 27 1012.4 - 6.4 - - - - - - -
01/07:35pm 13.3 W 21 31 1012.2 - 6.4 - - - - - - -
01/07:30pm 13.4 W 23 31 1012.2 - 6.4 - - - - - - -
01/07:00pm 13.1 W 21 30 1011.9 - 6.4 - - - - - - -
01/06:35pm 13.5 W 22 32 1011.9 - 6.4 - - - - - - -
01/06:30pm 12.8 W 22 30 1011.8 - 6.4 - - - - - - -

Other Formats:

Comma delimited format used in spreadsheet applications
http://www.bom.gov.au/fwo/IDV60701/IDV60701.94842.axf

JavaScript Object Notation format (JSON) in row-major order
http://www.bom.gov.au/fwo/IDV60701/IDV60701.94842.json